sensor_id;sensor_type;location;lat;lon;timestamp;temperature;humidity
44671;DHT22;48397;53.016;-2.260;2023-05-16T00:02:18;7.50;99.90
44671;DHT22;48397;53.016;-2.260;2023-05-16T00:04:47;7.40;99.90
44671;DHT22;48397;53.016;-2.260;2023-05-16T00:07:19;7.40;99.90
44671;DHT22;48397;53.016;-2.260;2023-05-16T00:10:11;7.30;99.90
44671;DHT22;48397;53.016;-2.260;2023-05-16T00:12:41;7.30;99.90
44671;DHT22;48397;53.016;-2.260;2023-05-16T00:15:18;7.30;99.90
44671;DHT22;48397;53.016;-2.260;2023-05-16T00:17:50;7.30;99.90
44671;DHT22;48397;53.016;-2.260;2023-05-16T00:22:51;10.70;99.90
44671;DHT22;48397;53.016;-2.260;2023-05-16T00:25:19;7.30;99.90
44671;DHT22;48397;53.016;-2.260;2023-05-16T00:27:47;7.30;99.90
44671;DHT22;48397;53.016;-2.260;2023-05-16T00:30:16;7.30;99.90
44671;DHT22;48397;53.016;-2.260;2023-05-16T00:32:45;7.30;99.90
44671;DHT22;48397;53.016;-2.260;2023-05-16T00:35:13;7.30;99.90
44671;DHT22;48397;53.016;-2.260;2023-05-16T00:37:41;7.30;99.90
44671;DHT22;48397;53.016;-2.260;2023-05-16T00:40:10;7.30;99.90
44671;DHT22;48397;53.016;-2.260;2023-05-16T00:42:38;7.30;99.90
44671;DHT22;48397;53.016;-2.260;2023-05-16T00:45:06;7.30;99.90
44671;DHT22;48397;53.016;-2.260;2023-05-16T00:47:35;7.30;99.90
44671;DHT22;48397;53.016;-2.260;2023-05-16T00:50:03;7.20;99.90
44671;DHT22;48397;53.016;-2.260;2023-05-16T00:52:32;7.20;99.90
44671;DHT22;48397;53.016;-2.260;2023-05-16T00:55:00;7.10;99.90
44671;DHT22;48397;53.016;-2.260;2023-05-16T00:59:58;7.10;99.90
44671;DHT22;48397;53.016;-2.260;2023-05-16T01:02:27;7.10;99.90
44671;DHT22;48397;53.016;-2.260;2023-05-16T01:04:57;7.10;99.90
44671;DHT22;48397;53.016;-2.260;2023-05-16T01:07:25;7.10;99.90
44671;DHT22;48397;53.016;-2.260;2023-05-16T01:09:53;7.10;99.90
44671;DHT22;48397;53.016;-2.260;2023-05-16T01:15:14;7.00;99.90
44671;DHT22;48397;53.016;-2.260;2023-05-16T01:18:14;6.90;99.90
44671;DHT22;48397;53.016;-2.260;2023-05-16T01:20:52;6.90;99.90
44671;DHT22;48397;53.016;-2.260;2023-05-16T01:26:22;6.80;99.90
44671;DHT22;48397;53.016;-2.260;2023-05-16T01:28:53;6.70;99.90
44671;DHT22;48397;53.016;-2.260;2023-05-16T01:31:22;6.60;99.90
44671;DHT22;48397;53.016;-2.260;2023-05-16T01:33:50;6.60;99.90
44671;DHT22;48397;53.016;-2.260;2023-05-16T01:47:15;6.10;99.90
44671;DHT22;48397;53.016;-2.260;2023-05-16T01:49:49;6.10;99.90
44671;DHT22;48397;53.016;-2.260;2023-05-16T01:55:28;5.90;99.90
44671;DHT22;48397;53.016;-2.260;2023-05-16T01:57:59;5.80;99.90
44671;DHT22;48397;53.016;-2.260;2023-05-16T02:00:29;5.80;99.90
44671;DHT22;48397;53.016;-2.260;2023-05-16T02:03:00;5.70;99.90
44671;DHT22;48397;53.016;-2.260;2023-05-16T02:05:28;5.60;99.90
44671;DHT22;48397;53.016;-2.260;2023-05-16T02:07:58;5.60;99.90
44671;DHT22;48397;53.016;-2.260;2023-05-16T02:10:26;5.50;99.90
44671;DHT22;48397;53.016;-2.260;2023-05-16T02:12:54;5.40;99.90
44671;DHT22;48397;53.016;-2.260;2023-05-16T02:15:22;5.30;99.90
44671;DHT22;48397;53.016;-2.260;2023-05-16T02:17:50;5.30;99.90
44671;DHT22;48397;53.016;-2.260;2023-05-16T02:20:18;5.40;99.90
44671;DHT22;48397;53.016;-2.260;2023-05-16T02:22:45;5.40;99.90
44671;DHT22;48397;53.016;-2.260;2023-05-16T02:25:14;5.40;99.90
44671;DHT22;48397;53.016;-2.260;2023-05-16T02:27:42;5.40;99.90
44671;DHT22;48397;53.016;-2.260;2023-05-16T02:30:10;6.30;99.90
44671;DHT22;48397;53.016;-2.260;2023-05-16T02:32:39;5.40;99.90
44671;DHT22;48397;53.016;-2.260;2023-05-16T02:35:07;7.80;99.90
44671;DHT22;48397;53.016;-2.260;2023-05-16T02:37:36;5.40;99.90
44671;DHT22;48397;53.016;-2.260;2023-05-16T02:40:04;5.40;99.90
44671;DHT22;48397;53.016;-2.260;2023-05-16T02:42:32;5.40;99.90
44671;DHT22;48397;53.016;-2.260;2023-05-16T02:45:00;5.50;99.90
44671;DHT22;48397;53.016;-2.260;2023-05-16T02:47:30;5.50;99.90
44671;DHT22;48397;53.016;-2.260;2023-05-16T02:49:59;5.60;99.90
44671;DHT22;48397;53.016;-2.260;2023-05-16T02:52:27;5.70;99.90
44671;DHT22;48397;53.016;-2.260;2023-05-16T02:54:54;5.80;99.90
44671;DHT22;48397;53.016;-2.260;2023-05-16T02:57:42;6.20;99.90
44671;DHT22;48397;53.016;-2.260;2023-05-16T03:00:12;5.90;99.90
44671;DHT22;48397;53.016;-2.260;2023-05-16T03:05:12;5.90;99.90
44671;DHT22;48397;53.016;-2.260;2023-05-16T03:07:40;5.90;99.90
44671;DHT22;48397;53.016;-2.260;2023-05-16T03:10:08;5.90;99.90
44671;DHT22;48397;53.016;-2.260;2023-05-16T03:12:37;6.00;99.90
44671;DHT22;48397;53.016;-2.260;2023-05-16T03:15:06;5.90;99.90
44671;DHT22;48397;53.016;-2.260;2023-05-16T03:17:36;6.00;99.90
44671;DHT22;48397;53.016;-2.260;2023-05-16T03:20:04;6.70;99.90
44671;DHT22;48397;53.016;-2.260;2023-05-16T03:22:35;6.00;99.90
44671;DHT22;48397;53.016;-2.260;2023-05-16T03:25:04;6.00;99.90
44671;DHT22;48397;53.016;-2.260;2023-05-16T03:27:35;6.00;99.90
44671;DHT22;48397;53.016;-2.260;2023-05-16T03:30:06;6.00;99.90
44671;DHT22;48397;53.016;-2.260;2023-05-16T03:32:36;6.00;99.90
44671;DHT22;48397;53.016;-2.260;2023-05-16T03:37:33;5.90;99.90
44671;DHT22;48397;53.016;-2.260;2023-05-16T03:40:01;6.00;99.90
44671;DHT22;48397;53.016;-2.260;2023-05-16T03:42:31;6.00;99.90
44671;DHT22;48397;53.016;-2.260;2023-05-16T03:45:00;5.90;99.90
44671;DHT22;48397;53.016;-2.260;2023-05-16T03:47:28;5.90;99.90
44671;DHT22;48397;53.016;-2.260;2023-05-16T03:49:59;5.80;99.90
44671;DHT22;48397;53.016;-2.260;2023-05-16T03:52:27;5.70;99.90
44671;DHT22;48397;53.016;-2.260;2023-05-16T03:54:55;5.70;99.90
44671;DHT22;48397;53.016;-2.260;2023-05-16T03:57:23;5.60;99.90
44671;DHT22;48397;53.016;-2.260;2023-05-16T03:59:51;5.60;99.90
44671;DHT22;48397;53.016;-2.260;2023-05-16T04:02:20;5.50;99.90
44671;DHT22;48397;53.016;-2.260;2023-05-16T04:04:49;5.50;99.90
44671;DHT22;48397;53.016;-2.260;2023-05-16T04:07:17;5.40;99.90
44671;DHT22;48397;53.016;-2.260;2023-05-16T04:09:47;5.30;99.90
44671;DHT22;48397;53.016;-2.260;2023-05-16T04:12:15;5.30;99.90
44671;DHT22;48397;53.016;-2.260;2023-05-16T04:17:11;5.30;99.90
44671;DHT22;48397;53.016;-2.260;2023-05-16T04:19:39;5.30;99.90
44671;DHT22;48397;53.016;-2.260;2023-05-16T04:22:07;6.30;99.90
44671;DHT22;48397;53.016;-2.260;2023-05-16T04:24:36;5.30;99.90
44671;DHT22;48397;53.016;-2.260;2023-05-16T04:27:07;5.30;99.90
44671;DHT22;48397;53.016;-2.260;2023-05-16T04:29:36;5.20;99.90
44671;DHT22;48397;53.016;-2.260;2023-05-16T04:32:05;5.30;99.90
44671;DHT22;48397;53.016;-2.260;2023-05-16T04:34:35;5.30;99.90
44671;DHT22;48397;53.016;-2.260;2023-05-16T04:37:07;5.30;99.90
44671;DHT22;48397;53.016;-2.260;2023-05-16T04:39:35;5.50;99.90
44671;DHT22;48397;53.016;-2.260;2023-05-16T04:42:04;5.40;99.90
44671;DHT22;48397;53.016;-2.260;2023-05-16T04:44:32;5.60;99.90
44671;DHT22;48397;53.016;-2.260;2023-05-16T04:47:02;5.70;99.90
44671;DHT22;48397;53.016;-2.260;2023-05-16T04:49:30;5.80;99.90
44671;DHT22;48397;53.016;-2.260;2023-05-16T04:51:58;5.80;99.90
44671;DHT22;48397;53.016;-2.260;2023-05-16T04:56:54;5.90;99.90
44671;DHT22;48397;53.016;-2.260;2023-05-16T04:59:23;5.90;99.90
44671;DHT22;48397;53.016;-2.260;2023-05-16T05:01:51;6.00;99.90
44671;DHT22;48397;53.016;-2.260;2023-05-16T05:04:19;6.00;99.90
44671;DHT22;48397;53.016;-2.260;2023-05-16T05:06:48;6.00;99.90
44671;DHT22;48397;53.016;-2.260;2023-05-16T05:09:16;6.00;99.90
44671;DHT22;48397;53.016;-2.260;2023-05-16T05:11:44;6.00;99.90
44671;DHT22;48397;53.016;-2.260;2023-05-16T05:14:12;6.10;99.90
44671;DHT22;48397;53.016;-2.260;2023-05-16T05:16:40;6.20;99.90
44671;DHT22;48397;53.016;-2.260;2023-05-16T05:19:08;6.20;99.90
44671;DHT22;48397;53.016;-2.260;2023-05-16T05:21:37;6.30;99.90
44671;DHT22;48397;53.016;-2.260;2023-05-16T05:24:05;6.60;99.90
44671;DHT22;48397;53.016;-2.260;2023-05-16T05:26:33;6.60;99.90
44671;DHT22;48397;53.016;-2.260;2023-05-16T05:29:01;6.60;99.90
44671;DHT22;48397;53.016;-2.260;2023-05-16T05:34:02;6.80;99.90
44671;DHT22;48397;53.016;-2.260;2023-05-16T05:36:30;7.00;99.90
44671;DHT22;48397;53.016;-2.260;2023-05-16T05:38:58;7.00;99.90
44671;DHT22;48397;53.016;-2.260;2023-05-16T05:41:26;7.10;99.90
44671;DHT22;48397;53.016;-2.260;2023-05-16T05:43:54;7.10;99.90
44671;DHT22;48397;53.016;-2.260;2023-05-16T05:46:23;7.20;99.90
44671;DHT22;48397;53.016;-2.260;2023-05-16T05:48:51;7.30;99.90
44671;DHT22;48397;53.016;-2.260;2023-05-16T05:51:20;7.40;99.90
44671;DHT22;48397;53.016;-2.260;2023-05-16T05:53:48;7.50;99.90
44671;DHT22;48397;53.016;-2.260;2023-05-16T05:56:16;7.60;99.90
44671;DHT22;48397;53.016;-2.260;2023-05-16T05:58:44;7.60;99.90
44671;DHT22;48397;53.016;-2.260;2023-05-16T06:01:11;7.60;99.90
44671;DHT22;48397;53.016;-2.260;2023-05-16T06:03:39;7.80;99.90
44671;DHT22;48397;53.016;-2.260;2023-05-16T06:06:08;7.90;99.90
44671;DHT22;48397;53.016;-2.260;2023-05-16T06:08:37;8.00;99.90
44671;DHT22;48397;53.016;-2.260;2023-05-16T06:11:07;8.10;99.90
44671;DHT22;48397;53.016;-2.260;2023-05-16T06:13:35;8.20;99.90
44671;DHT22;48397;53.016;-2.260;2023-05-16T06:16:03;8.10;99.90
44671;DHT22;48397;53.016;-2.260;2023-05-16T06:18:35;8.20;99.90
44671;DHT22;48397;53.016;-2.260;2023-05-16T06:21:04;8.20;99.90
44671;DHT22;48397;53.016;-2.260;2023-05-16T06:23:32;8.20;99.90
44671;DHT22;48397;53.016;-2.260;2023-05-16T06:26:01;8.40;99.90
44671;DHT22;48397;53.016;-2.260;2023-05-16T06:28:29;8.60;99.90
44671;DHT22;48397;53.016;-2.260;2023-05-16T06:30:57;8.80;99.90
44671;DHT22;48397;53.016;-2.260;2023-05-16T06:33:25;8.80;99.90
44671;DHT22;48397;53.016;-2.260;2023-05-16T06:35:53;9.00;99.90
44671;DHT22;48397;53.016;-2.260;2023-05-16T06:38:22;9.40;99.90
44671;DHT22;48397;53.016;-2.260;2023-05-16T06:40:49;9.40;99.90
44671;DHT22;48397;53.016;-2.260;2023-05-16T06:43:17;9.60;99.90
44671;DHT22;48397;53.016;-2.260;2023-05-16T06:45:46;9.60;99.90
44671;DHT22;48397;53.016;-2.260;2023-05-16T06:48:14;9.70;99.90
44671;DHT22;48397;53.016;-2.260;2023-05-16T06:50:42;9.80;99.90
44671;DHT22;48397;53.016;-2.260;2023-05-16T06:53:13;9.80;99.90
44671;DHT22;48397;53.016;-2.260;2023-05-16T06:55:41;9.80;99.90
44671;DHT22;48397;53.016;-2.260;2023-05-16T06:58:09;9.90;99.90
44671;DHT22;48397;53.016;-2.260;2023-05-16T07:00:37;10.10;99.90
44671;DHT22;48397;53.016;-2.260;2023-05-16T07:03:17;10.10;99.90
44671;DHT22;48397;53.016;-2.260;2023-05-16T07:05:47;10.20;99.90
44671;DHT22;48397;53.016;-2.260;2023-05-16T07:08:14;10.20;99.90
44671;DHT22;48397;53.016;-2.260;2023-05-16T07:10:44;10.20;99.90
44671;DHT22;48397;53.016;-2.260;2023-05-16T07:13:11;10.30;99.90
44671;DHT22;48397;53.016;-2.260;2023-05-16T07:15:41;10.20;99.90
44671;DHT22;48397;53.016;-2.260;2023-05-16T07:18:09;10.20;99.90
44671;DHT22;48397;53.016;-2.260;2023-05-16T07:20:38;10.30;99.90
44671;DHT22;48397;53.016;-2.260;2023-05-16T07:23:08;10.30;99.90
44671;DHT22;48397;53.016;-2.260;2023-05-16T07:25:38;10.30;99.90
44671;DHT22;48397;53.016;-2.260;2023-05-16T07:28:14;10.50;99.90
44671;DHT22;48397;53.016;-2.260;2023-05-16T07:30:43;9.00;99.90
44671;DHT22;48397;53.016;-2.260;2023-05-16T07:35:46;10.70;99.90
44671;DHT22;48397;53.016;-2.260;2023-05-16T07:38:14;10.80;99.90
44671;DHT22;48397;53.016;-2.260;2023-05-16T07:40:42;10.80;99.90
44671;DHT22;48397;53.016;-2.260;2023-05-16T07:43:13;11.00;99.90
44671;DHT22;48397;53.016;-2.260;2023-05-16T07:45:40;11.00;99.90
44671;DHT22;48397;53.016;-2.260;2023-05-16T07:48:09;11.10;99.90
44671;DHT22;48397;53.016;-2.260;2023-05-16T07:53:05;11.40;99.90
44671;DHT22;48397;53.016;-2.260;2023-05-16T07:55:33;11.30;99.90
44671;DHT22;48397;53.016;-2.260;2023-05-16T07:58:02;11.50;99.90
44671;DHT22;48397;53.016;-2.260;2023-05-16T08:00:30;11.60;99.90
44671;DHT22;48397;53.016;-2.260;2023-05-16T08:02:58;11.70;99.90
44671;DHT22;48397;53.016;-2.260;2023-05-16T08:05:26;11.60;99.90
44671;DHT22;48397;53.016;-2.260;2023-05-16T08:07:54;11.90;99.90
44671;DHT22;48397;53.016;-2.260;2023-05-16T08:10:25;11.90;99.90
44671;DHT22;48397;53.016;-2.260;2023-05-16T08:12:52;12.00;99.90
44671;DHT22;48397;53.016;-2.260;2023-05-16T08:15:20;12.00;99.90
44671;DHT22;48397;53.016;-2.260;2023-05-16T08:17:48;12.10;99.90
44671;DHT22;48397;53.016;-2.260;2023-05-16T08:20:17;12.10;99.90
44671;DHT22;48397;53.016;-2.260;2023-05-16T08:22:44;12.10;99.90
44671;DHT22;48397;53.016;-2.260;2023-05-16T08:25:12;12.20;99.90
44671;DHT22;48397;53.016;-2.260;2023-05-16T08:27:41;12.30;99.90
44671;DHT22;48397;53.016;-2.260;2023-05-16T08:32:38;12.30;99.90
44671;DHT22;48397;53.016;-2.260;2023-05-16T08:35:07;12.40;99.90
44671;DHT22;48397;53.016;-2.260;2023-05-16T08:37:35;12.60;99.90
44671;DHT22;48397;53.016;-2.260;2023-05-16T08:40:04;12.60;99.90
44671;DHT22;48397;53.016;-2.260;2023-05-16T08:42:33;12.70;99.90
44671;DHT22;48397;53.016;-2.260;2023-05-16T08:45:01;12.70;99.90
44671;DHT22;48397;53.016;-2.260;2023-05-16T08:47:30;12.50;99.90
44671;DHT22;48397;53.016;-2.260;2023-05-16T08:49:59;12.60;99.90
44671;DHT22;48397;53.016;-2.260;2023-05-16T08:52:30;12.60;99.90
44671;DHT22;48397;53.016;-2.260;2023-05-16T08:55:02;12.50;99.90
44671;DHT22;48397;53.016;-2.260;2023-05-16T08:57:39;12.50;99.90
44671;DHT22;48397;53.016;-2.260;2023-05-16T09:00:08;12.30;99.90
44671;DHT22;48397;53.016;-2.260;2023-05-16T09:02:40;12.40;99.90
44671;DHT22;48397;53.016;-2.260;2023-05-16T09:05:14;12.40;99.90
44671;DHT22;48397;53.016;-2.260;2023-05-16T09:07:43;12.90;99.90
44671;DHT22;48397;53.016;-2.260;2023-05-16T09:10:11;12.90;99.90
44671;DHT22;48397;53.016;-2.260;2023-05-16T09:12:40;13.20;99.90
44671;DHT22;48397;53.016;-2.260;2023-05-16T09:15:09;13.30;99.90
44671;DHT22;48397;53.016;-2.260;2023-05-16T09:17:40;13.40;99.90
44671;DHT22;48397;53.016;-2.260;2023-05-16T09:20:17;13.40;99.90
44671;DHT22;48397;53.016;-2.260;2023-05-16T09:22:59;13.60;99.90
44671;DHT22;48397;53.016;-2.260;2023-05-16T09:25:29;13.70;99.90
44671;DHT22;48397;53.016;-2.260;2023-05-16T09:28:00;13.70;99.90
44671;DHT22;48397;53.016;-2.260;2023-05-16T09:32:53;13.70;99.90
44671;DHT22;48397;53.016;-2.260;2023-05-16T09:35:22;13.70;99.90
44671;DHT22;48397;53.016;-2.260;2023-05-16T09:38:13;13.70;99.90
44671;DHT22;48397;53.016;-2.260;2023-05-16T09:40:43;13.70;99.90
44671;DHT22;48397;53.016;-2.260;2023-05-16T09:43:14;13.70;99.90
44671;DHT22;48397;53.016;-2.260;2023-05-16T09:45:47;13.60;99.90
44671;DHT22;48397;53.016;-2.260;2023-05-16T09:48:16;13.70;99.90
44671;DHT22;48397;53.016;-2.260;2023-05-16T09:50:50;13.70;99.90
44671;DHT22;48397;53.016;-2.260;2023-05-16T09:53:27;13.90;99.90
44671;DHT22;48397;53.016;-2.260;2023-05-16T09:56:02;14.10;99.90
44671;DHT22;48397;53.016;-2.260;2023-05-16T09:58:31;12.00;99.90
44671;DHT22;48397;53.016;-2.260;2023-05-16T10:01:00;14.20;99.90
44671;DHT22;48397;53.016;-2.260;2023-05-16T10:03:29;14.20;99.90
44671;DHT22;48397;53.016;-2.260;2023-05-16T10:05:59;17.00;99.90
44671;DHT22;48397;53.016;-2.260;2023-05-16T10:08:30;13.80;99.90
44671;DHT22;48397;53.016;-2.260;2023-05-16T10:10:58;13.90;99.90
44671;DHT22;48397;53.016;-2.260;2023-05-16T10:13:31;13.90;99.90
44671;DHT22;48397;53.016;-2.260;2023-05-16T10:16:05;14.10;99.90
44671;DHT22;48397;53.016;-2.260;2023-05-16T10:18:34;14.20;99.90
44671;DHT22;48397;53.016;-2.260;2023-05-16T10:21:13;14.30;99.90
44671;DHT22;48397;53.016;-2.260;2023-05-16T10:23:42;14.30;99.90
44671;DHT22;48397;53.016;-2.260;2023-05-16T10:26:11;14.30;99.90
44671;DHT22;48397;53.016;-2.260;2023-05-16T10:28:42;14.00;99.90
44671;DHT22;48397;53.016;-2.260;2023-05-16T10:31:10;14.00;99.90
44671;DHT22;48397;53.016;-2.260;2023-05-16T10:33:39;13.90;99.90
44671;DHT22;48397;53.016;-2.260;2023-05-16T10:36:11;14.00;99.90
44671;DHT22;48397;53.016;-2.260;2023-05-16T10:38:39;14.00;99.90
44671;DHT22;48397;53.016;-2.260;2023-05-16T10:41:08;14.30;99.90
44671;DHT22;48397;53.016;-2.260;2023-05-16T10:43:36;14.30;99.90
44671;DHT22;48397;53.016;-2.260;2023-05-16T10:46:06;14.40;99.90
44671;DHT22;48397;53.016;-2.260;2023-05-16T10:48:41;14.30;99.90
44671;DHT22;48397;53.016;-2.260;2023-05-16T10:53:53;14.20;99.90
44671;DHT22;48397;53.016;-2.260;2023-05-16T10:56:23;14.40;99.90
44671;DHT22;48397;53.016;-2.260;2023-05-16T10:58:53;14.40;99.90
44671;DHT22;48397;53.016;-2.260;2023-05-16T11:01:22;14.40;99.90
44671;DHT22;48397;53.016;-2.260;2023-05-16T11:06:33;14.50;99.90
44671;DHT22;48397;53.016;-2.260;2023-05-16T11:12:02;14.20;99.90
44671;DHT22;48397;53.016;-2.260;2023-05-16T11:14:34;14.70;99.90
44671;DHT22;48397;53.016;-2.260;2023-05-16T11:17:23;14.80;99.90
44671;DHT22;48397;53.016;-2.260;2023-05-16T11:19:55;14.80;99.90
44671;DHT22;48397;53.016;-2.260;2023-05-16T11:22:28;15.10;99.90
44671;DHT22;48397;53.016;-2.260;2023-05-16T11:25:01;15.10;99.90
44671;DHT22;48397;53.016;-2.260;2023-05-16T11:27:31;15.10;99.90
44671;DHT22;48397;53.016;-2.260;2023-05-16T11:30:20;15.00;99.90
44671;DHT22;48397;53.016;-2.260;2023-05-16T11:32:48;15.10;99.90
44671;DHT22;48397;53.016;-2.260;2023-05-16T11:35:17;15.20;99.90
44671;DHT22;48397;53.016;-2.260;2023-05-16T11:37:47;15.30;99.90
44671;DHT22;48397;53.016;-2.260;2023-05-16T11:40:16;15.40;99.90
44671;DHT22;48397;53.016;-2.260;2023-05-16T11:42:45;15.30;99.90
44671;DHT22;48397;53.016;-2.260;2023-05-16T11:45:19;15.70;99.90
44671;DHT22;48397;53.016;-2.260;2023-05-16T11:47:48;15.70;99.90
44671;DHT22;48397;53.016;-2.260;2023-05-16T11:50:18;15.80;99.90
44671;DHT22;48397;53.016;-2.260;2023-05-16T11:52:58;15.90;99.90
44671;DHT22;48397;53.016;-2.260;2023-05-16T11:55:27;16.00;99.90
44671;DHT22;48397;53.016;-2.260;2023-05-16T11:58:10;15.70;99.90
44671;DHT22;48397;53.016;-2.260;2023-05-16T12:00:47;15.90;99.90
44671;DHT22;48397;53.016;-2.260;2023-05-16T12:03:17;15.90;99.90
44671;DHT22;48397;53.016;-2.260;2023-05-16T12:05:50;16.10;99.90
44671;DHT22;48397;53.016;-2.260;2023-05-16T12:08:20;16.10;99.90
44671;DHT22;48397;53.016;-2.260;2023-05-16T12:10:50;15.90;99.90
44671;DHT22;48397;53.016;-2.260;2023-05-16T12:13:22;14.80;99.90
44671;DHT22;48397;53.016;-2.260;2023-05-16T12:15:51;15.70;99.90
44671;DHT22;48397;53.016;-2.260;2023-05-16T12:18:19;15.70;99.90
44671;DHT22;48397;53.016;-2.260;2023-05-16T12:20:50;15.70;99.90
44671;DHT22;48397;53.016;-2.260;2023-05-16T12:23:18;15.70;99.90
44671;DHT22;48397;53.016;-2.260;2023-05-16T12:25:47;15.60;99.90
44671;DHT22;48397;53.016;-2.260;2023-05-16T12:28:16;15.60;99.90
44671;DHT22;48397;53.016;-2.260;2023-05-16T12:30:45;15.50;99.90
44671;DHT22;48397;53.016;-2.260;2023-05-16T12:33:15;15.60;99.90
44671;DHT22;48397;53.016;-2.260;2023-05-16T12:35:45;15.80;99.90
44671;DHT22;48397;53.016;-2.260;2023-05-16T12:40:45;15.90;99.90
44671;DHT22;48397;53.016;-2.260;2023-05-16T12:43:15;15.90;99.90
44671;DHT22;48397;53.016;-2.260;2023-05-16T12:45:49;15.60;99.90
44671;DHT22;48397;53.016;-2.260;2023-05-16T12:48:22;15.60;99.90
44671;DHT22;48397;53.016;-2.260;2023-05-16T12:50:55;15.70;99.90
44671;DHT22;48397;53.016;-2.260;2023-05-16T12:53:24;15.90;99.90
44671;DHT22;48397;53.016;-2.260;2023-05-16T12:56:00;15.90;99.90
44671;DHT22;48397;53.016;-2.260;2023-05-16T12:58:29;17.70;99.90
44671;DHT22;48397;53.016;-2.260;2023-05-16T13:01:03;16.50;99.90
44671;DHT22;48397;53.016;-2.260;2023-05-16T13:03:33;16.50;99.90
44671;DHT22;48397;53.016;-2.260;2023-05-16T13:06:03;16.40;99.90
44671;DHT22;48397;53.016;-2.260;2023-05-16T13:08:32;16.60;99.90
44671;DHT22;48397;53.016;-2.260;2023-05-16T13:11:02;13.50;99.90
44671;DHT22;48397;53.016;-2.260;2023-05-16T13:13:30;16.80;99.90
44671;DHT22;48397;53.016;-2.260;2023-05-16T13:16:03;16.90;99.90
44671;DHT22;48397;53.016;-2.260;2023-05-16T13:18:32;15.40;99.90
44671;DHT22;48397;53.016;-2.260;2023-05-16T13:21:00;16.80;99.90
44671;DHT22;48397;53.016;-2.260;2023-05-16T13:23:29;16.90;99.90
44671;DHT22;48397;53.016;-2.260;2023-05-16T13:26:09;17.20;99.90
44671;DHT22;48397;53.016;-2.260;2023-05-16T13:28:38;16.90;99.90
44671;DHT22;48397;53.016;-2.260;2023-05-16T13:31:06;16.90;99.90
44671;DHT22;48397;53.016;-2.260;2023-05-16T13:33:34;16.60;99.90
44671;DHT22;48397;53.016;-2.260;2023-05-16T13:36:03;16.60;99.90
44671;DHT22;48397;53.016;-2.260;2023-05-16T13:38:36;16.30;99.90
44671;DHT22;48397;53.016;-2.260;2023-05-16T13:41:04;16.20;99.90
44671;DHT22;48397;53.016;-2.260;2023-05-16T13:43:33;16.30;99.90
44671;DHT22;48397;53.016;-2.260;2023-05-16T13:46:00;16.50;99.90
44671;DHT22;48397;53.016;-2.260;2023-05-16T13:48:28;16.30;99.90
44671;DHT22;48397;53.016;-2.260;2023-05-16T13:50:56;16.20;99.90
44671;DHT22;48397;53.016;-2.260;2023-05-16T13:53:24;16.50;99.90
44671;DHT22;48397;53.016;-2.260;2023-05-16T13:55:51;16.90;99.90
44671;DHT22;48397;53.016;-2.260;2023-05-16T13:58:22;16.90;99.90
44671;DHT22;48397;53.016;-2.260;2023-05-16T14:00:57;17.90;99.90
44671;DHT22;48397;53.016;-2.260;2023-05-16T14:03:26;18.00;99.90
44671;DHT22;48397;53.016;-2.260;2023-05-16T14:05:57;18.20;99.90
44671;DHT22;48397;53.016;-2.260;2023-05-16T14:08:24;17.90;99.90
44671;DHT22;48397;53.016;-2.260;2023-05-16T14:10:54;17.60;99.90
44671;DHT22;48397;53.016;-2.260;2023-05-16T14:13:23;17.60;99.90
44671;DHT22;48397;53.016;-2.260;2023-05-16T14:15:52;17.80;99.90
44671;DHT22;48397;53.016;-2.260;2023-05-16T14:18:19;17.90;99.90
44671;DHT22;48397;53.016;-2.260;2023-05-16T14:23:17;17.60;99.90
44671;DHT22;48397;53.016;-2.260;2023-05-16T14:25:46;17.60;99.90
44671;DHT22;48397;53.016;-2.260;2023-05-16T14:28:15;17.90;99.90
44671;DHT22;48397;53.016;-2.260;2023-05-16T14:30:43;17.90;99.90
44671;DHT22;48397;53.016;-2.260;2023-05-16T14:33:14;17.90;99.90
44671;DHT22;48397;53.016;-2.260;2023-05-16T14:35:41;17.80;99.90
44671;DHT22;48397;53.016;-2.260;2023-05-16T14:38:09;18.10;99.90
44671;DHT22;48397;53.016;-2.260;2023-05-16T14:40:37;18.70;99.90
44671;DHT22;48397;53.016;-2.260;2023-05-16T14:43:05;19.00;99.90
44671;DHT22;48397;53.016;-2.260;2023-05-16T14:45:33;18.80;99.90
44671;DHT22;48397;53.016;-2.260;2023-05-16T14:50:29;18.20;99.90
44671;DHT22;48397;53.016;-2.260;2023-05-16T14:52:57;17.90;99.90
44671;DHT22;48397;53.016;-2.260;2023-05-16T14:55:25;18.20;99.90
44671;DHT22;48397;53.016;-2.260;2023-05-16T14:57:53;18.90;99.90
44671;DHT22;48397;53.016;-2.260;2023-05-16T15:00:27;19.30;99.90
44671;DHT22;48397;53.016;-2.260;2023-05-16T15:02:56;19.30;99.90
44671;DHT22;48397;53.016;-2.260;2023-05-16T15:05:26;19.30;99.90
44671;DHT22;48397;53.016;-2.260;2023-05-16T15:07:55;18.70;99.90
44671;DHT22;48397;53.016;-2.260;2023-05-16T15:10:24;18.70;99.90
44671;DHT22;48397;53.016;-2.260;2023-05-16T15:12:52;18.00;99.90
44671;DHT22;48397;53.016;-2.260;2023-05-16T15:15:20;17.60;99.90
44671;DHT22;48397;53.016;-2.260;2023-05-16T15:17:47;17.60;99.90
44671;DHT22;48397;53.016;-2.260;2023-05-16T15:20:16;17.60;99.90
44671;DHT22;48397;53.016;-2.260;2023-05-16T15:22:43;17.60;99.90
44671;DHT22;48397;53.016;-2.260;2023-05-16T15:25:11;17.30;99.90
44671;DHT22;48397;53.016;-2.260;2023-05-16T15:27:39;17.10;99.90
44671;DHT22;48397;53.016;-2.260;2023-05-16T15:30:07;17.70;99.90
44671;DHT22;48397;53.016;-2.260;2023-05-16T15:32:35;18.20;99.90
44671;DHT22;48397;53.016;-2.260;2023-05-16T15:35:06;19.10;99.90
44671;DHT22;48397;53.016;-2.260;2023-05-16T15:37:34;19.10;99.90
44671;DHT22;48397;53.016;-2.260;2023-05-16T15:40:06;19.50;99.90
44671;DHT22;48397;53.016;-2.260;2023-05-16T15:42:35;19.50;99.90
44671;DHT22;48397;53.016;-2.260;2023-05-16T15:45:03;19.20;99.90
44671;DHT22;48397;53.016;-2.260;2023-05-16T15:47:31;18.60;99.90
44671;DHT22;48397;53.016;-2.260;2023-05-16T15:50:01;18.50;99.90
44671;DHT22;48397;53.016;-2.260;2023-05-16T15:52:29;17.80;99.90
44671;DHT22;48397;53.016;-2.260;2023-05-16T15:54:57;17.40;99.90
44671;DHT22;48397;53.016;-2.260;2023-05-16T15:58:29;17.50;99.90
44671;DHT22;48397;53.016;-2.260;2023-05-16T16:00:56;17.50;99.90
44671;DHT22;48397;53.016;-2.260;2023-05-16T16:03:25;16.80;99.90
44671;DHT22;48397;53.016;-2.260;2023-05-16T16:05:53;16.80;99.90
44671;DHT22;48397;53.016;-2.260;2023-05-16T16:08:20;16.60;99.90
44671;DHT22;48397;53.016;-2.260;2023-05-16T16:10:48;16.60;99.90
44671;DHT22;48397;53.016;-2.260;2023-05-16T16:13:17;16.60;99.90
44671;DHT22;48397;53.016;-2.260;2023-05-16T16:15:45;16.50;99.90
44671;DHT22;48397;53.016;-2.260;2023-05-16T16:18:13;16.50;99.90
44671;DHT22;48397;53.016;-2.260;2023-05-16T16:20:45;16.50;99.90
44671;DHT22;48397;53.016;-2.260;2023-05-16T16:23:13;16.90;99.90
44671;DHT22;48397;53.016;-2.260;2023-05-16T16:25:41;16.90;99.90
44671;DHT22;48397;53.016;-2.260;2023-05-16T16:28:08;17.30;99.90
44671;DHT22;48397;53.016;-2.260;2023-05-16T16:30:37;18.10;99.90
44671;DHT22;48397;53.016;-2.260;2023-05-16T16:33:05;17.90;99.90
44671;DHT22;48397;53.016;-2.260;2023-05-16T16:35:35;17.90;99.90
44671;DHT22;48397;53.016;-2.260;2023-05-16T16:38:03;17.80;99.90
44671;DHT22;48397;53.016;-2.260;2023-05-16T16:40:34;17.40;99.90
44671;DHT22;48397;53.016;-2.260;2023-05-16T16:43:02;17.50;99.90